ASN logo
ASN Wikibase Occurrence # 157794
Last updated: 28 November 2021
This information is added by users of ASN. Neither ASN nor the Flight Safety Foundation are responsible for the completeness or correctness of this information. If you feel this information is incomplete or incorrect, you can submit corrected information.

Date:25-JUL-2013
Time:18:38
Type:Silhouette image of generic E145 model; specific model in this crash may look slightly different
Embraer ERJ-145LI
Owner/operator:Tianjin Airlines
Registration: B-3088
MSN: 14501056
Fatalities:Fatalities: 0 / Occupants: 51
Other fatalities:0
Aircraft damage: Minor
Location:Xian-Xianyang International Airport (XIY/ZLXY) -   China
Phase: Landing
Nature:Passenger - Scheduled
Departure airport:
Destination airport:Xian-Xianyang International Airport (XIY/ZLXY)
Narrative:
Plane skidded off runway during heavy rainfall. One of the plane's tires burst during landing.
Weather reported about the incident time (18:38 LT / 10:38 Z):
ZLXY 251000Z 06004MPS 1800 HZ NSC 31/26 Q1000 NOSIG
ZLXY 251100Z 02003MPS 320V060 1000 R05L/1000U R05R/1400V2000D SHRA BR SCT040CB BKN050 27/26 Q1001 BECMG TL1130 -RA

Sources:

http://www.chinadaily.com.cn/china/2013-07/26/content_16833574.htm


Revision history:

Date/timeContributorUpdates
26-Jul-2013 02:18 Steinmann Added
26-Jul-2013 06:20 harro Updated [Time, Aircraft type, Operator, Total fatalities, Other fatalities, Location, Destination airport, Narrative]
26-Jul-2013 06:22 harro Updated [Nature, Narrative]
28-Jul-2013 13:47 gerard57 Updated [Registration, Total occupants]
05-Dec-2015 18:38 junior sjc Updated [Cn]
08-Dec-2015 18:23 junior sjc Updated [Aircraft type]

Corrections or additions? ... Edit this accident description